sensor_id;sensor_type;location;lat;lon;timestamp;P1;durP1;ratioP1;P2;durP2;ratioP2
1691;SDS011;843;52.054;8.552;2023-01-04T00:01:29;2.70;;;1.83;;
1691;SDS011;843;52.054;8.552;2023-01-04T00:03:56;4.13;;;1.70;;
1691;SDS011;843;52.054;8.552;2023-01-04T00:06:23;2.53;;;1.80;;
1691;SDS011;843;52.054;8.552;2023-01-04T00:08:50;8.90;;;2.00;;
1691;SDS011;843;52.054;8.552;2023-01-04T00:11:18;6.60;;;1.97;;
1691;SDS011;843;52.054;8.552;2023-01-04T00:13:46;6.93;;;1.87;;
1691;SDS011;843;52.054;8.552;2023-01-04T00:16:18;3.13;;;1.60;;
1691;SDS011;843;52.054;8.552;2023-01-04T00:18:46;3.67;;;1.67;;
1691;SDS011;843;52.054;8.552;2023-01-04T00:21:13;5.83;;;1.70;;
1691;SDS011;843;52.054;8.552;2023-01-04T00:23:41;3.63;;;1.33;;
1691;SDS011;843;52.054;8.552;2023-01-04T00:26:10;3.60;;;1.43;;
1691;SDS011;843;52.054;8.552;2023-01-04T00:28:38;2.60;;;1.20;;
1691;SDS011;843;52.054;8.552;2023-01-04T00:31:05;3.50;;;2.23;;
1691;SDS011;843;52.054;8.552;2023-01-04T00:33:34;5.30;;;1.83;;
1691;SDS011;843;52.054;8.552;2023-01-04T00:36:02;2.70;;;1.93;;
1691;SDS011;843;52.054;8.552;2023-01-04T00:38:30;2.20;;;1.17;;
1691;SDS011;843;52.054;8.552;2023-01-04T00:40:57;3.93;;;1.40;;
1691;SDS011;843;52.054;8.552;2023-01-04T00:43:24;3.00;;;1.40;;
1691;SDS011;843;52.054;8.552;2023-01-04T00:45:51;3.07;;;1.60;;
1691;SDS011;843;52.054;8.552;2023-01-04T00:48:17;2.63;;;1.77;;
1691;SDS011;843;52.054;8.552;2023-01-04T00:50:46;5.00;;;1.63;;
1691;SDS011;843;52.054;8.552;2023-01-04T00:53:13;5.17;;;1.73;;
1691;SDS011;843;52.054;8.552;2023-01-04T00:55:40;2.30;;;1.40;;
1691;SDS011;843;52.054;8.552;2023-01-04T00:58:07;5.33;;;1.70;;
1691;SDS011;843;52.054;8.552;2023-01-04T01:00:34;2.73;;;1.47;;
1691;SDS011;843;52.054;8.552;2023-01-04T01:03:01;4.60;;;1.30;;
1691;SDS011;843;52.054;8.552;2023-01-04T01:05:28;4.33;;;1.97;;
1691;SDS011;843;52.054;8.552;2023-01-04T01:07:57;3.53;;;1.60;;
1691;SDS011;843;52.054;8.552;2023-01-04T01:10:44;4.60;;;2.17;;
1691;SDS011;843;52.054;8.552;2023-01-04T01:13:11;4.40;;;1.43;;
1691;SDS011;843;52.054;8.552;2023-01-04T01:15:37;7.27;;;2.07;;
1691;SDS011;843;52.054;8.552;2023-01-04T01:18:04;4.17;;;1.60;;
1691;SDS011;843;52.054;8.552;2023-01-04T01:20:31;4.70;;;1.80;;
1691;SDS011;843;52.054;8.552;2023-01-04T01:22:59;5.77;;;1.80;;
1691;SDS011;843;52.054;8.552;2023-01-04T01:25:26;1.73;;;1.33;;
1691;SDS011;843;52.054;8.552;2023-01-04T01:27:53;3.83;;;1.70;;
1691;SDS011;843;52.054;8.552;2023-01-04T01:30:19;7.40;;;1.37;;
1691;SDS011;843;52.054;8.552;2023-01-04T01:32:46;3.80;;;1.63;;
1691;SDS011;843;52.054;8.552;2023-01-04T01:35:13;5.90;;;2.73;;
1691;SDS011;843;52.054;8.552;2023-01-04T01:37:40;5.83;;;1.70;;
1691;SDS011;843;52.054;8.552;2023-01-04T01:40:09;3.17;;;1.60;;
1691;SDS011;843;52.054;8.552;2023-01-04T01:42:36;7.53;;;2.00;;
1691;SDS011;843;52.054;8.552;2023-01-04T01:45:03;5.37;;;1.30;;
1691;SDS011;843;52.054;8.552;2023-01-04T01:47:36;5.40;;;1.80;;
1691;SDS011;843;52.054;8.552;2023-01-04T01:50:07;3.87;;;1.60;;
1691;SDS011;843;52.054;8.552;2023-01-04T01:52:43;3.07;;;1.63;;
1691;SDS011;843;52.054;8.552;2023-01-04T01:55:11;4.40;;;1.60;;
1691;SDS011;843;52.054;8.552;2023-01-04T01:57:40;4.60;;;1.57;;
1691;SDS011;843;52.054;8.552;2023-01-04T02:00:08;3.10;;;1.60;;
1691;SDS011;843;52.054;8.552;2023-01-04T02:02:38;4.90;;;1.57;;
1691;SDS011;843;52.054;8.552;2023-01-04T02:05:06;4.37;;;2.13;;
1691;SDS011;843;52.054;8.552;2023-01-04T02:07:33;3.23;;;1.40;;
1691;SDS011;843;52.054;8.552;2023-01-04T02:10:00;2.70;;;1.53;;
1691;SDS011;843;52.054;8.552;2023-01-04T02:12:29;2.90;;;1.30;;
1691;SDS011;843;52.054;8.552;2023-01-04T02:14:56;2.80;;;1.47;;
1691;SDS011;843;52.054;8.552;2023-01-04T02:17:26;2.60;;;1.40;;
1691;SDS011;843;52.054;8.552;2023-01-04T02:20:02;5.50;;;2.70;;
1691;SDS011;843;52.054;8.552;2023-01-04T02:22:58;5.00;;;1.60;;
1691;SDS011;843;52.054;8.552;2023-01-04T02:26:01;4.73;;;1.20;;
1691;SDS011;843;52.054;8.552;2023-01-04T02:28:48;3.37;;;1.47;;
1691;SDS011;843;52.054;8.552;2023-01-04T02:31:31;7.07;;;2.30;;
1691;SDS011;843;52.054;8.552;2023-01-04T02:34:03;2.70;;;1.30;;
1691;SDS011;843;52.054;8.552;2023-01-04T02:36:33;6.23;;;1.73;;
1691;SDS011;843;52.054;8.552;2023-01-04T02:39:05;3.60;;;1.40;;
1691;SDS011;843;52.054;8.552;2023-01-04T02:41:37;7.50;;;1.90;;
1691;SDS011;843;52.054;8.552;2023-01-04T02:44:09;5.13;;;2.03;;
1691;SDS011;843;52.054;8.552;2023-01-04T02:46:57;2.50;;;1.10;;
1691;SDS011;843;52.054;8.552;2023-01-04T02:49:26;5.23;;;1.83;;
1691;SDS011;843;52.054;8.552;2023-01-04T02:52:10;6.80;;;2.57;;
1691;SDS011;843;52.054;8.552;2023-01-04T02:54:37;4.80;;;1.83;;
1691;SDS011;843;52.054;8.552;2023-01-04T02:57:12;3.37;;;1.60;;
1691;SDS011;843;52.054;8.552;2023-01-04T02:59:49;4.37;;;1.60;;
1691;SDS011;843;52.054;8.552;2023-01-04T03:02:32;5.23;;;1.60;;
1691;SDS011;843;52.054;8.552;2023-01-04T03:05:37;4.83;;;2.03;;
1691;SDS011;843;52.054;8.552;2023-01-04T03:08:27;10.43;;;2.77;;
1691;SDS011;843;52.054;8.552;2023-01-04T03:10:58;5.43;;;1.80;;
1691;SDS011;843;52.054;8.552;2023-01-04T03:13:27;1.83;;;1.43;;
1691;SDS011;843;52.054;8.552;2023-01-04T03:15:57;3.03;;;1.90;;
1691;SDS011;843;52.054;8.552;2023-01-04T03:18:28;2.90;;;1.90;;
1691;SDS011;843;52.054;8.552;2023-01-04T03:20:57;3.17;;;1.80;;
1691;SDS011;843;52.054;8.552;2023-01-04T03:23:25;3.80;;;1.93;;
1691;SDS011;843;52.054;8.552;2023-01-04T03:26:12;3.70;;;2.10;;
1691;SDS011;843;52.054;8.552;2023-01-04T03:28:59;3.20;;;1.97;;
1691;SDS011;843;52.054;8.552;2023-01-04T03:31:48;4.30;;;2.27;;
1691;SDS011;843;52.054;8.552;2023-01-04T03:34:37;6.37;;;2.07;;
1691;SDS011;843;52.054;8.552;2023-01-04T03:37:22;4.93;;;2.23;;
1691;SDS011;843;52.054;8.552;2023-01-04T03:39:59;6.20;;;2.13;;
1691;SDS011;843;52.054;8.552;2023-01-04T03:42:54;2.80;;;1.87;;
1691;SDS011;843;52.054;8.552;2023-01-04T03:45:40;8.07;;;2.30;;
1691;SDS011;843;52.054;8.552;2023-01-04T03:48:27;4.70;;;1.90;;
1691;SDS011;843;52.054;8.552;2023-01-04T03:50:59;3.17;;;2.07;;
1691;SDS011;843;52.054;8.552;2023-01-04T03:53:30;3.27;;;1.87;;
1691;SDS011;843;52.054;8.552;2023-01-04T03:55:58;4.90;;;2.07;;
1691;SDS011;843;52.054;8.552;2023-01-04T03:58:26;5.03;;;2.57;;
1691;SDS011;843;52.054;8.552;2023-01-04T04:00:53;7.30;;;2.20;;
1691;SDS011;843;52.054;8.552;2023-01-04T04:03:27;3.60;;;1.80;;
1691;SDS011;843;52.054;8.552;2023-01-04T04:06:13;3.83;;;2.33;;
1691;SDS011;843;52.054;8.552;2023-01-04T04:08:57;5.17;;;2.07;;
1691;SDS011;843;52.054;8.552;2023-01-04T04:11:24;5.10;;;2.20;;
1691;SDS011;843;52.054;8.552;2023-01-04T04:13:57;4.27;;;1.80;;
1691;SDS011;843;52.054;8.552;2023-01-04T04:16:25;3.20;;;1.80;;
1691;SDS011;843;52.054;8.552;2023-01-04T04:18:52;6.83;;;1.93;;
1691;SDS011;843;52.054;8.552;2023-01-04T04:21:20;4.60;;;2.00;;
1691;SDS011;843;52.054;8.552;2023-01-04T04:23:47;5.37;;;2.10;;
1691;SDS011;843;52.054;8.552;2023-01-04T04:26:14;2.50;;;2.10;;
1691;SDS011;843;52.054;8.552;2023-01-04T04:28:41;4.00;;;1.80;;
1691;SDS011;843;52.054;8.552;2023-01-04T04:31:08;4.17;;;2.30;;
1691;SDS011;843;52.054;8.552;2023-01-04T04:33:35;3.60;;;2.17;;
1691;SDS011;843;52.054;8.552;2023-01-04T04:36:02;2.97;;;1.90;;
1691;SDS011;843;52.054;8.552;2023-01-04T04:38:31;2.37;;;1.50;;
1691;SDS011;843;52.054;8.552;2023-01-04T04:40:58;5.23;;;1.73;;
1691;SDS011;843;52.054;8.552;2023-01-04T04:43:38;3.23;;;1.50;;
1691;SDS011;843;52.054;8.552;2023-01-04T04:46:05;3.30;;;1.53;;
1691;SDS011;843;52.054;8.552;2023-01-04T04:48:32;3.40;;;1.50;;
1691;SDS011;843;52.054;8.552;2023-01-04T04:50:58;3.13;;;1.80;;
1691;SDS011;843;52.054;8.552;2023-01-04T04:53:25;1.70;;;1.60;;
1691;SDS011;843;52.054;8.552;2023-01-04T04:55:53;3.77;;;1.60;;
1691;SDS011;843;52.054;8.552;2023-01-04T04:58:20;3.43;;;1.30;;
1691;SDS011;843;52.054;8.552;2023-01-04T05:00:47;3.50;;;1.53;;
1691;SDS011;843;52.054;8.552;2023-01-04T05:03:13;2.70;;;1.10;;
1691;SDS011;843;52.054;8.552;2023-01-04T05:05:40;1.70;;;1.30;;
1691;SDS011;843;52.054;8.552;2023-01-04T05:08:07;2.57;;;1.50;;
1691;SDS011;843;52.054;8.552;2023-01-04T05:10:34;4.90;;;1.20;;
1691;SDS011;843;52.054;8.552;2023-01-04T05:13:03;2.43;;;1.50;;
1691;SDS011;843;52.054;8.552;2023-01-04T05:15:30;1.20;;;1.10;;
1691;SDS011;843;52.054;8.552;2023-01-04T05:17:59;1.80;;;1.50;;
1691;SDS011;843;52.054;8.552;2023-01-04T05:20:26;6.47;;;1.10;;
1691;SDS011;843;52.054;8.552;2023-01-04T05:22:52;1.53;;;1.20;;
1691;SDS011;843;52.054;8.552;2023-01-04T05:25:19;1.97;;;1.60;;
1691;SDS011;843;52.054;8.552;2023-01-04T05:27:46;1.80;;;1.20;;
1691;SDS011;843;52.054;8.552;2023-01-04T05:30:15;2.23;;;1.53;;
1691;SDS011;843;52.054;8.552;2023-01-04T05:33:05;1.60;;;1.50;;
1691;SDS011;843;52.054;8.552;2023-01-04T05:35:32;4.97;;;1.47;;
1691;SDS011;843;52.054;8.552;2023-01-04T05:37:59;2.90;;;1.60;;
1691;SDS011;843;52.054;8.552;2023-01-04T05:40:27;3.10;;;1.90;;
1691;SDS011;843;52.054;8.552;2023-01-04T05:42:53;1.90;;;1.80;;
1691;SDS011;843;52.054;8.552;2023-01-04T05:45:21;3.50;;;1.70;;
1691;SDS011;843;52.054;8.552;2023-01-04T05:47:49;2.27;;;1.40;;
1691;SDS011;843;52.054;8.552;2023-01-04T05:50:16;2.03;;;1.83;;
1691;SDS011;843;52.054;8.552;2023-01-04T05:52:43;5.77;;;1.87;;
1691;SDS011;843;52.054;8.552;2023-01-04T05:55:10;1.40;;;1.23;;
1691;SDS011;843;52.054;8.552;2023-01-04T05:57:37;3.50;;;2.43;;
1691;SDS011;843;52.054;8.552;2023-01-04T06:00:04;1.60;;;1.50;;
1691;SDS011;843;52.054;8.552;2023-01-04T06:02:33;2.60;;;1.70;;
1691;SDS011;843;52.054;8.552;2023-01-04T06:05:00;5.90;;;1.80;;
1691;SDS011;843;52.054;8.552;2023-01-04T06:07:27;2.53;;;1.47;;
1691;SDS011;843;52.054;8.552;2023-01-04T06:09:54;3.10;;;1.30;;
1691;SDS011;843;52.054;8.552;2023-01-04T06:12:21;1.53;;;1.20;;
1691;SDS011;843;52.054;8.552;2023-01-04T06:14:47;1.70;;;1.60;;
1691;SDS011;843;52.054;8.552;2023-01-04T06:17:14;1.80;;;1.50;;
1691;SDS011;843;52.054;8.552;2023-01-04T06:19:42;2.60;;;1.50;;
1691;SDS011;843;52.054;8.552;2023-01-04T06:22:09;3.13;;;1.70;;
1691;SDS011;843;52.054;8.552;2023-01-04T06:24:36;1.50;;;1.40;;
1691;SDS011;843;52.054;8.552;2023-01-04T06:27:03;2.20;;;1.33;;
1691;SDS011;843;52.054;8.552;2023-01-04T06:29:30;4.20;;;1.63;;
1691;SDS011;843;52.054;8.552;2023-01-04T06:31:56;1.47;;;1.27;;
1691;SDS011;843;52.054;8.552;2023-01-04T06:34:23;4.63;;;1.67;;
1691;SDS011;843;52.054;8.552;2023-01-04T06:36:51;2.53;;;1.47;;
1691;SDS011;843;52.054;8.552;2023-01-04T06:39:18;1.27;;;1.17;;
1691;SDS011;843;52.054;8.552;2023-01-04T06:41:45;1.80;;;1.33;;
1691;SDS011;843;52.054;8.552;2023-01-04T06:44:11;1.10;;;1.00;;
1691;SDS011;843;52.054;8.552;2023-01-04T06:46:38;1.43;;;1.33;;
1691;SDS011;843;52.054;8.552;2023-01-04T06:49:06;3.27;;;1.50;;
1691;SDS011;843;52.054;8.552;2023-01-04T06:51:32;1.30;;;1.17;;
1691;SDS011;843;52.054;8.552;2023-01-04T06:54:01;1.47;;;1.37;;
1691;SDS011;843;52.054;8.552;2023-01-04T06:56:27;2.90;;;1.40;;
1691;SDS011;843;52.054;8.552;2023-01-04T06:58:55;1.80;;;1.17;;
1691;SDS011;843;52.054;8.552;2023-01-04T07:01:21;1.30;;;1.20;;
1691;SDS011;843;52.054;8.552;2023-01-04T07:03:48;5.17;;;1.20;;
1691;SDS011;843;52.054;8.552;2023-01-04T07:06:15;2.03;;;1.30;;
1691;SDS011;843;52.054;8.552;2023-01-04T07:08:42;1.83;;;1.73;;
1691;SDS011;843;52.054;8.552;2023-01-04T07:11:10;2.53;;;1.77;;
1691;SDS011;843;52.054;8.552;2023-01-04T07:13:36;1.50;;;1.40;;
1691;SDS011;843;52.054;8.552;2023-01-04T07:16:03;3.33;;;1.80;;
1691;SDS011;843;52.054;8.552;2023-01-04T07:18:30;2.33;;;1.63;;
1691;SDS011;843;52.054;8.552;2023-01-04T07:20:57;4.03;;;1.93;;
1691;SDS011;843;52.054;8.552;2023-01-04T07:23:24;1.40;;;1.30;;
1691;SDS011;843;52.054;8.552;2023-01-04T07:25:51;1.50;;;1.33;;
1691;SDS011;843;52.054;8.552;2023-01-04T07:28:19;2.37;;;2.17;;
1691;SDS011;843;52.054;8.552;2023-01-04T07:31:02;2.30;;;1.47;;
1691;SDS011;843;52.054;8.552;2023-01-04T07:33:29;1.37;;;1.27;;
1691;SDS011;843;52.054;8.552;2023-01-04T07:35:59;1.70;;;1.60;;
1691;SDS011;843;52.054;8.552;2023-01-04T07:38:27;2.03;;;1.70;;
1691;SDS011;843;52.054;8.552;2023-01-04T07:40:53;2.03;;;1.47;;
1691;SDS011;843;52.054;8.552;2023-01-04T07:43:22;2.03;;;1.20;;
1691;SDS011;843;52.054;8.552;2023-01-04T07:45:49;2.80;;;1.80;;
1691;SDS011;843;52.054;8.552;2023-01-04T07:48:16;1.60;;;1.43;;
1691;SDS011;843;52.054;8.552;2023-01-04T07:50:43;1.57;;;1.47;;
1691;SDS011;843;52.054;8.552;2023-01-04T07:53:10;1.70;;;1.60;;
1691;SDS011;843;52.054;8.552;2023-01-04T07:55:37;1.17;;;1.07;;
1691;SDS011;843;52.054;8.552;2023-01-04T07:58:04;1.87;;;1.77;;
1691;SDS011;843;52.054;8.552;2023-01-04T08:00:32;2.10;;;1.90;;
1691;SDS011;843;52.054;8.552;2023-01-04T08:02:59;1.43;;;1.33;;
1691;SDS011;843;52.054;8.552;2023-01-04T08:05:26;2.83;;;1.70;;
1691;SDS011;843;52.054;8.552;2023-01-04T08:07:53;2.10;;;1.90;;
1691;SDS011;843;52.054;8.552;2023-01-04T08:10:20;2.43;;;1.80;;
1691;SDS011;843;52.054;8.552;2023-01-04T08:12:47;2.83;;;1.83;;
1691;SDS011;843;52.054;8.552;2023-01-04T08:15:14;2.23;;;1.90;;
1691;SDS011;843;52.054;8.552;2023-01-04T08:17:42;1.60;;;1.50;;
1691;SDS011;843;52.054;8.552;2023-01-04T08:20:09;1.70;;;1.60;;
1691;SDS011;843;52.054;8.552;2023-01-04T08:22:36;1.30;;;1.20;;
1691;SDS011;843;52.054;8.552;2023-01-04T08:25:03;1.10;;;1.00;;
1691;SDS011;843;52.054;8.552;2023-01-04T08:27:31;2.37;;;1.70;;
1691;SDS011;843;52.054;8.552;2023-01-04T08:29:58;1.73;;;1.27;;
1691;SDS011;843;52.054;8.552;2023-01-04T08:32:24;2.20;;;1.80;;
1691;SDS011;843;52.054;8.552;2023-01-04T08:34:53;1.60;;;1.40;;
1691;SDS011;843;52.054;8.552;2023-01-04T08:37:19;1.40;;;1.23;;
1691;SDS011;843;52.054;8.552;2023-01-04T08:39:46;1.73;;;1.63;;
1691;SDS011;843;52.054;8.552;2023-01-04T08:42:13;2.47;;;1.50;;
1691;SDS011;843;52.054;8.552;2023-01-04T08:44:40;1.40;;;1.30;;
1691;SDS011;843;52.054;8.552;2023-01-04T08:47:06;1.67;;;1.57;;
1691;SDS011;843;52.054;8.552;2023-01-04T08:49:33;2.30;;;1.63;;
1691;SDS011;843;52.054;8.552;2023-01-04T08:52:02;1.20;;;1.10;;
1691;SDS011;843;52.054;8.552;2023-01-04T08:54:30;1.70;;;1.60;;
1691;SDS011;843;52.054;8.552;2023-01-04T08:56:57;1.87;;;1.73;;
1691;SDS011;843;52.054;8.552;2023-01-04T08:59:24;1.50;;;1.40;;
1691;SDS011;843;52.054;8.552;2023-01-04T09:01:51;3.03;;;1.63;;
1691;SDS011;843;52.054;8.552;2023-01-04T09:04:18;1.23;;;1.13;;
1691;SDS011;843;52.054;8.552;2023-01-04T09:06:44;1.50;;;1.40;;
1691;SDS011;843;52.054;8.552;2023-01-04T09:09:13;2.07;;;1.87;;
1691;SDS011;843;52.054;8.552;2023-01-04T09:11:40;1.80;;;1.70;;
1691;SDS011;843;52.054;8.552;2023-01-04T09:14:08;1.60;;;1.50;;
1691;SDS011;843;52.054;8.552;2023-01-04T09:16:37;1.57;;;1.40;;
1691;SDS011;843;52.054;8.552;2023-01-04T09:19:05;1.60;;;1.50;;
1691;SDS011;843;52.054;8.552;2023-01-04T09:21:32;2.70;;;1.53;;
1691;SDS011;843;52.054;8.552;2023-01-04T09:23:58;1.40;;;1.30;;
1691;SDS011;843;52.054;8.552;2023-01-04T09:26:27;1.60;;;1.50;;
1691;SDS011;843;52.054;8.552;2023-01-04T09:28:54;2.10;;;1.90;;
1691;SDS011;843;52.054;8.552;2023-01-04T09:31:22;1.83;;;1.73;;
1691;SDS011;843;52.054;8.552;2023-01-04T09:33:50;1.67;;;1.50;;
1691;SDS011;843;52.054;8.552;2023-01-04T09:36:17;1.53;;;1.43;;
1691;SDS011;843;52.054;8.552;2023-01-04T09:38:44;3.07;;;1.37;;
1691;SDS011;843;52.054;8.552;2023-01-04T09:41:17;4.03;;;1.40;;
1691;SDS011;843;52.054;8.552;2023-01-04T09:43:50;1.77;;;1.47;;
1691;SDS011;843;52.054;8.552;2023-01-04T09:46:21;1.70;;;1.60;;
1691;SDS011;843;52.054;8.552;2023-01-04T09:48:52;1.77;;;1.30;;
1691;SDS011;843;52.054;8.552;2023-01-04T09:51:22;2.17;;;1.67;;
1691;SDS011;843;52.054;8.552;2023-01-04T09:53:56;1.70;;;1.60;;
1691;SDS011;843;52.054;8.552;2023-01-04T09:56:27;3.07;;;1.70;;
1691;SDS011;843;52.054;8.552;2023-01-04T09:58:56;1.40;;;1.30;;
1691;SDS011;843;52.054;8.552;2023-01-04T10:01:24;1.60;;;1.50;;
1691;SDS011;843;52.054;8.552;2023-01-04T10:03:55;1.90;;;1.63;;
1691;SDS011;843;52.054;8.552;2023-01-04T10:06:24;2.30;;;2.10;;
1691;SDS011;843;52.054;8.552;2023-01-04T10:08:51;1.50;;;1.40;;
1691;SDS011;843;52.054;8.552;2023-01-04T10:11:22;1.70;;;1.60;;
1691;SDS011;843;52.054;8.552;2023-01-04T10:14:03;2.20;;;2.03;;
1691;SDS011;843;52.054;8.552;2023-01-04T10:16:57;2.53;;;2.10;;
1691;SDS011;843;52.054;8.552;2023-01-04T10:19:31;2.13;;;1.80;;
1691;SDS011;843;52.054;8.552;2023-01-04T10:22:03;2.23;;;1.80;;
1691;SDS011;843;52.054;8.552;2023-01-04T10:24:35;1.73;;;1.63;;
1691;SDS011;843;52.054;8.552;2023-01-04T10:27:09;1.93;;;1.83;;
1691;SDS011;843;52.054;8.552;2023-01-04T10:29:46;2.13;;;1.33;;
1691;SDS011;843;52.054;8.552;2023-01-04T10:32:18;4.13;;;1.60;;
1691;SDS011;843;52.054;8.552;2023-01-04T10:34:54;1.97;;;1.87;;
1691;SDS011;843;52.054;8.552;2023-01-04T10:37:22;4.23;;;1.70;;
1691;SDS011;843;52.054;8.552;2023-01-04T10:39:52;1.70;;;1.60;;
1691;SDS011;843;52.054;8.552;2023-01-04T10:42:23;2.07;;;1.50;;
1691;SDS011;843;52.054;8.552;2023-01-04T10:45:04;3.47;;;2.03;;
1691;SDS011;843;52.054;8.552;2023-01-04T10:47:34;1.87;;;1.77;;
1691;SDS011;843;52.054;8.552;2023-01-04T10:50:07;2.23;;;2.03;;
1691;SDS011;843;52.054;8.552;2023-01-04T10:52:41;2.00;;;1.90;;
1691;SDS011;843;52.054;8.552;2023-01-04T10:55:10;2.90;;;1.83;;
1691;SDS011;843;52.054;8.552;2023-01-04T10:57:41;2.00;;;1.80;;
1691;SDS011;843;52.054;8.552;2023-01-04T11:00:12;1.63;;;1.53;;
1691;SDS011;843;52.054;8.552;2023-01-04T11:02:43;2.33;;;1.50;;
1691;SDS011;843;52.054;8.552;2023-01-04T11:05:15;1.93;;;1.67;;
1691;SDS011;843;52.054;8.552;2023-01-04T11:07:46;2.63;;;2.20;;
1691;SDS011;843;52.054;8.552;2023-01-04T11:10:17;2.30;;;1.70;;
1691;SDS011;843;52.054;8.552;2023-01-04T11:12:46;1.80;;;1.70;;
1691;SDS011;843;52.054;8.552;2023-01-04T11:15:14;2.13;;;1.93;;
1691;SDS011;843;52.054;8.552;2023-01-04T11:17:41;2.60;;;1.90;;
1691;SDS011;843;52.054;8.552;2023-01-04T11:20:08;2.97;;;2.10;;
1691;SDS011;843;52.054;8.552;2023-01-04T11:22:36;2.47;;;2.27;;
1691;SDS011;843;52.054;8.552;2023-01-04T11:25:06;2.10;;;2.00;;
1691;SDS011;843;52.054;8.552;2023-01-04T11:27:34;2.50;;;2.30;;
1691;SDS011;843;52.054;8.552;2023-01-04T11:30:10;2.43;;;2.20;;
1691;SDS011;843;52.054;8.552;2023-01-04T11:32:43;3.03;;;2.13;;
1691;SDS011;843;52.054;8.552;2023-01-04T11:35:15;2.70;;;2.50;;
1691;SDS011;843;52.054;8.552;2023-01-04T11:37:41;2.27;;;2.17;;
1691;SDS011;843;52.054;8.552;2023-01-04T11:40:17;3.00;;;2.70;;
1691;SDS011;843;52.054;8.552;2023-01-04T11:42:47;2.57;;;2.47;;
1691;SDS011;843;52.054;8.552;2023-01-04T11:45:23;3.63;;;3.33;;
1691;SDS011;843;52.054;8.552;2023-01-04T11:47:51;3.40;;;3.10;;
1691;SDS011;843;52.054;8.552;2023-01-04T11:50:31;3.10;;;2.90;;
1691;SDS011;843;52.054;8.552;2023-01-04T11:53:00;3.87;;;3.10;;
1691;SDS011;843;52.054;8.552;2023-01-04T11:55:27;3.10;;;2.90;;
1691;SDS011;843;52.054;8.552;2023-01-04T11:58:05;3.60;;;3.30;;
1691;SDS011;843;52.054;8.552;2023-01-04T12:00:34;3.20;;;2.90;;
1691;SDS011;843;52.054;8.552;2023-01-04T12:03:11;3.80;;;3.00;;
1691;SDS011;843;52.054;8.552;2023-01-04T12:05:38;3.60;;;3.30;;
1691;SDS011;843;52.054;8.552;2023-01-04T12:08:05;3.13;;;2.93;;
1691;SDS011;843;52.054;8.552;2023-01-04T12:10:32;2.80;;;2.60;;
1691;SDS011;843;52.054;8.552;2023-01-04T12:13:00;2.83;;;2.63;;
1691;SDS011;843;52.054;8.552;2023-01-04T12:15:28;3.37;;;2.90;;
1691;SDS011;843;52.054;8.552;2023-01-04T12:18:02;3.13;;;2.93;;
1691;SDS011;843;52.054;8.552;2023-01-04T12:20:31;4.03;;;3.40;;
1691;SDS011;843;52.054;8.552;2023-01-04T12:22:58;3.97;;;3.63;;
1691;SDS011;843;52.054;8.552;2023-01-04T12:25:27;3.20;;;3.00;;
1691;SDS011;843;52.054;8.552;2023-01-04T12:27:57;3.23;;;2.93;;
1691;SDS011;843;52.054;8.552;2023-01-04T12:30:34;3.50;;;2.93;;
1691;SDS011;843;52.054;8.552;2023-01-04T12:36:05;5.77;;;3.33;;
1691;SDS011;843;52.054;8.552;2023-01-04T12:47:47;3.10;;;2.90;;
1691;SDS011;843;52.054;8.552;2023-01-04T12:50:33;3.93;;;3.50;;
1691;SDS011;843;52.054;8.552;2023-01-04T12:53:48;3.50;;;3.30;;
1691;SDS011;843;52.054;8.552;2023-01-04T12:56:15;3.43;;;3.13;;
1691;SDS011;843;52.054;8.552;2023-01-04T13:01:33;3.67;;;3.10;;
1691;SDS011;843;52.054;8.552;2023-01-04T13:04:02;4.10;;;2.77;;
1691;SDS011;843;52.054;8.552;2023-01-04T13:06:53;2.70;;;2.50;;
1691;SDS011;843;52.054;8.552;2023-01-04T13:09:38;3.60;;;3.30;;
1691;SDS011;843;52.054;8.552;2023-01-04T13:12:10;2.87;;;2.67;;
1691;SDS011;843;52.054;8.552;2023-01-04T13:14:42;3.60;;;3.30;;
1691;SDS011;843;52.054;8.552;2023-01-04T13:17:13;3.70;;;3.30;;
1691;SDS011;843;52.054;8.552;2023-01-04T13:19:42;3.10;;;2.80;;
1691;SDS011;843;52.054;8.552;2023-01-04T13:22:11;3.80;;;3.40;;
1691;SDS011;843;52.054;8.552;2023-01-04T13:24:43;7.23;;;4.10;;
1691;SDS011;843;52.054;8.552;2023-01-04T13:27:13;4.60;;;4.20;;
1691;SDS011;843;52.054;8.552;2023-01-04T13:29:42;4.47;;;4.10;;
1691;SDS011;843;52.054;8.552;2023-01-04T13:32:09;6.80;;;4.50;;
1691;SDS011;843;52.054;8.552;2023-01-04T13:34:37;5.00;;;4.57;;
1691;SDS011;843;52.054;8.552;2023-01-04T13:37:18;4.80;;;4.40;;
1691;SDS011;843;52.054;8.552;2023-01-04T13:39:49;4.77;;;4.37;;
1691;SDS011;843;52.054;8.552;2023-01-04T13:42:20;5.23;;;4.73;;
1691;SDS011;843;52.054;8.552;2023-01-04T13:44:53;4.93;;;4.53;;
1691;SDS011;843;52.054;8.552;2023-01-04T13:47:29;6.00;;;5.50;;
1691;SDS011;843;52.054;8.552;2023-01-04T13:49:59;5.70;;;5.30;;
1691;SDS011;843;52.054;8.552;2023-01-04T13:52:28;5.40;;;4.90;;
1691;SDS011;843;52.054;8.552;2023-01-04T13:55:08;5.67;;;5.17;;
1691;SDS011;843;52.054;8.552;2023-01-04T13:57:35;5.33;;;4.93;;
1691;SDS011;843;52.054;8.552;2023-01-04T14:00:02;6.00;;;5.50;;
1691;SDS011;843;52.054;8.552;2023-01-04T14:02:30;6.83;;;6.30;;
1691;SDS011;843;52.054;8.552;2023-01-04T14:04:58;5.90;;;5.23;;
1691;SDS011;843;52.054;8.552;2023-01-04T14:07:25;6.03;;;5.33;;
1691;SDS011;843;52.054;8.552;2023-01-04T14:09:55;6.70;;;5.30;;
1691;SDS011;843;52.054;8.552;2023-01-04T14:12:23;7.00;;;5.90;;
1691;SDS011;843;52.054;8.552;2023-01-04T14:14:53;5.60;;;5.20;;
1691;SDS011;843;52.054;8.552;2023-01-04T14:17:26;6.90;;;6.30;;
1691;SDS011;843;52.054;8.552;2023-01-04T14:19:59;6.63;;;6.07;;
1691;SDS011;843;52.054;8.552;2023-01-04T14:22:27;7.70;;;7.07;;
1691;SDS011;843;52.054;8.552;2023-01-04T14:34:04;7.43;;;6.83;;
1691;SDS011;843;52.054;8.552;2023-01-04T14:36:32;10.87;;;6.67;;
1691;SDS011;843;52.054;8.552;2023-01-04T14:41:54;7.10;;;6.43;;
1691;SDS011;843;52.054;8.552;2023-01-04T14:44:23;6.13;;;5.50;;
1691;SDS011;843;52.054;8.552;2023-01-04T14:46:52;5.57;;;5.07;;
1691;SDS011;843;52.054;8.552;2023-01-04T14:49:20;5.87;;;5.37;;
1691;SDS011;843;52.054;8.552;2023-01-04T14:51:47;7.53;;;4.70;;
1691;SDS011;843;52.054;8.552;2023-01-04T14:54:16;5.27;;;4.80;;
1691;SDS011;843;52.054;8.552;2023-01-04T14:56:48;5.90;;;5.30;;
1691;SDS011;843;52.054;8.552;2023-01-04T14:59:15;6.37;;;5.70;;
1691;SDS011;843;52.054;8.552;2023-01-04T15:01:44;7.13;;;4.90;;
1691;SDS011;843;52.054;8.552;2023-01-04T15:04:11;5.60;;;4.80;;
1691;SDS011;843;52.054;8.552;2023-01-04T15:06:45;10.70;;;5.13;;
1691;SDS011;843;52.054;8.552;2023-01-04T15:09:12;5.90;;;3.70;;
1691;SDS011;843;52.054;8.552;2023-01-04T15:11:39;4.40;;;4.00;;
1691;SDS011;843;52.054;8.552;2023-01-04T15:14:06;6.37;;;4.40;;
1691;SDS011;843;52.054;8.552;2023-01-04T15:16:33;5.00;;;4.47;;
1691;SDS011;843;52.054;8.552;2023-01-04T15:19:01;5.03;;;4.63;;
1691;SDS011;843;52.054;8.552;2023-01-04T15:21:28;4.07;;;3.03;;
1691;SDS011;843;52.054;8.552;2023-01-04T15:23:55;5.20;;;3.67;;
1691;SDS011;843;52.054;8.552;2023-01-04T15:26:22;4.73;;;3.27;;
1691;SDS011;843;52.054;8.552;2023-01-04T15:28:50;3.70;;;3.40;;
1691;SDS011;843;52.054;8.552;2023-01-04T15:31:16;4.20;;;3.17;;
1691;SDS011;843;52.054;8.552;2023-01-04T15:33:43;3.90;;;3.10;;
1691;SDS011;843;52.054;8.552;2023-01-04T15:36:12;2.93;;;2.60;;
1691;SDS011;843;52.054;8.552;2023-01-04T15:38:40;5.30;;;3.33;;
1691;SDS011;843;52.054;8.552;2023-01-04T15:41:08;3.67;;;2.93;;
1691;SDS011;843;52.054;8.552;2023-01-04T15:43:56;3.23;;;3.00;;
1691;SDS011;843;52.054;8.552;2023-01-04T15:46:22;5.20;;;3.57;;
1691;SDS011;843;52.054;8.552;2023-01-04T15:48:49;2.97;;;2.67;;
1691;SDS011;843;52.054;8.552;2023-01-04T15:51:17;4.53;;;3.53;;
1691;SDS011;843;52.054;8.552;2023-01-04T15:53:44;3.40;;;2.60;;
1691;SDS011;843;52.054;8.552;2023-01-04T15:56:11;5.47;;;3.10;;
1691;SDS011;843;52.054;8.552;2023-01-04T15:58:39;3.53;;;3.03;;
1691;SDS011;843;52.054;8.552;2023-01-04T16:01:06;3.20;;;2.60;;
1691;SDS011;843;52.054;8.552;2023-01-04T16:03:34;2.93;;;2.70;;
1691;SDS011;843;52.054;8.552;2023-01-04T16:06:05;5.47;;;3.10;;
1691;SDS011;843;52.054;8.552;2023-01-04T16:08:34;3.30;;;2.47;;
1691;SDS011;843;52.054;8.552;2023-01-04T16:11:06;5.77;;;3.07;;
1691;SDS011;843;52.054;8.552;2023-01-04T16:13:34;3.67;;;3.20;;
1691;SDS011;843;52.054;8.552;2023-01-04T16:16:00;4.03;;;3.30;;